Time;durP1;ratioP1;P1;durP2;ratioP2;P2;SDS_P1;SDS_P2;PMS_P1;PMS_P2;Temp;Humidity;BMP_temperature;BMP_pressure;BME280_temperature;BME280_humidity;BME280_pressure;Samples;Min_cycle;Max_cycle;Signal;HPM_P1;HPM_P2
2021/06/23 00:02:01;;;;;;;8.60;6.32;;;18.50;99.90;;;;;;5115632;28;20024;-77
2021/06/23 00:04:26;;;;;;;8.73;5.80;;;18.50;99.90;;;;;;5095940;28;20437;-78
2021/06/23 00:06:52;;;;;;;8.80;5.40;;;18.40;99.90;;;;;;5113636;28;20110;-78
2021/06/23 00:09:18;;;;;;;9.05;5.93;;;18.30;99.90;;;;;;5095501;28;20496;-78
2021/06/23 00:11:46;;;;;;;7.38;5.53;;;18.30;99.90;;;;;;5113305;28;20049;-78
2021/06/23 00:14:13;;;;;;;6.75;5.47;;;18.30;99.90;;;;;;5113464;28;20099;-77
2021/06/23 00:16:40;;;;;;;10.07;5.60;;;18.30;99.90;;;;;;5096046;28;20027;-77
2021/06/23 00:19:06;;;;;;;7.30;5.93;;;18.30;99.90;;;;;;5117541;28;20027;-77
2021/06/23 00:21:32;;;;;;;9.57;6.68;;;18.40;99.90;;;;;;5124256;27;20027;-76
2021/06/23 00:23:57;;;;;;;8.45;6.50;;;18.40;99.90;;;;;;5138248;27;20038;-77
2021/06/23 00:26:23;;;;;;;8.13;6.32;;;18.40;99.90;;;;;;5137919;27;20023;-76
2021/06/23 00:28:49;;;;;;;9.70;8.48;;;18.40;99.90;;;;;;5137507;27;20019;-77
2021/06/23 00:31:14;;;;;;;11.90;8.52;;;18.50;99.90;;;;;;5138733;27;20027;-77
2021/06/23 00:33:42;;;;;;;18.98;9.60;;;18.50;99.90;;;;;;5139418;27;20545;-78
2021/06/23 00:36:07;;;;;;;8.80;7.20;;;18.60;99.90;;;;;;5169847;22;20042;-73
2021/06/23 00:38:33;;;;;;;12.65;8.70;;;18.50;99.90;;;;;;5082289;28;20024;-73
2021/06/23 00:40:59;;;;;;;15.80;8.95;;;18.40;99.90;;;;;;5091243;28;20411;-73
2021/06/23 00:43:25;;;;;;;10.52;7.80;;;18.40;99.90;;;;;;5091797;28;20032;-74
2021/06/23 00:45:51;;;;;;;12.45;9.52;;;18.30;99.90;;;;;;5088646;28;20055;-74
2021/06/23 00:48:27;;;;;;;9.43;8.50;;;18.30;99.90;;;;;;5082332;28;20066;-73
2021/06/23 00:50:53;;;;;;;12.38;7.68;;;18.20;99.90;;;;;;5090821;28;20027;-73
2021/06/23 00:53:19;;;;;;;9.10;7.70;;;18.00;99.90;;;;;;5091303;28;20044;-74
2021/06/23 00:55:46;;;;;;;7.75;6.18;;;18.00;99.90;;;;;;5091590;28;20043;-74
2021/06/23 00:58:13;;;;;;;8.88;7.97;;;17.90;99.90;;;;;;5091589;28;20031;-73
2021/06/23 01:00:39;;;;;;;12.27;7.82;;;18.10;99.90;;;;;;5090796;28;20032;-74
2021/06/23 01:03:09;;;;;;;11.77;7.57;;;18.20;99.90;;;;;;5091288;28;20035;-74
2021/06/23 01:05:35;;;;;;;16.92;9.30;;;18.10;99.90;;;;;;5073380;28;20114;-74
2021/06/23 01:08:02;;;;;;;10.20;7.85;;;18.30;99.90;;;;;;5091154;28;20016;-74
2021/06/23 01:10:34;;;;;;;14.38;7.88;;;18.10;99.90;;;;;;5090764;28;20028;-73
2021/06/23 01:13:14;;;;;;;11.23;8.13;;;18.10;99.90;;;;;;5091100;28;20016;-72
2021/06/23 01:15:41;;;;;;;12.73;8.60;;;18.10;99.90;;;;;;5091424;28;20027;-73
2021/06/23 01:18:11;;;;;;;16.90;8.73;;;18.20;99.90;;;;;;5091397;28;20024;-74
2021/06/23 01:20:41;;;;;;;15.18;9.02;;;18.30;99.90;;;;;;5090641;28;20073;-73
2021/06/23 01:23:07;;;;;;;13.13;9.48;;;18.20;99.90;;;;;;5091127;28;20020;-73
2021/06/23 01:25:33;;;;;;;13.38;9.05;;;18.20;99.90;;;;;;5091351;28;20111;-73
2021/06/23 01:27:58;;;;;;;13.15;8.25;;;18.20;99.90;;;;;;5091242;28;20428;-73
2021/06/23 01:30:24;;;;;;;8.45;7.60;;;18.20;99.90;;;;;;5090563;28;20077;-73
2021/06/23 01:32:50;;;;;;;7.50;6.80;;;18.10;99.90;;;;;;5073031;28;20031;-73
2021/06/23 01:35:16;;;;;;;7.88;6.82;;;18.10;99.90;;;;;;5091041;28;20031;-73
2021/06/23 01:37:42;;;;;;;7.18;6.47;;;18.10;99.90;;;;;;5090932;28;20397;-73
2021/06/23 01:40:08;;;;;;;11.48;7.97;;;18.10;99.90;;;;;;5090326;28;20111;-72
2021/06/23 01:42:34;;;;;;;9.13;7.55;;;18.20;99.90;;;;;;5091144;28;20380;-72
2021/06/23 01:45:00;;;;;;;8.27;7.15;;;18.20;99.90;;;;;;5090699;28;20028;-73
2021/06/23 01:47:26;;;;;;;11.13;7.78;;;18.10;99.90;;;;;;5090973;28;20485;-73
2021/06/23 01:49:52;;;;;;;9.50;7.35;;;18.20;99.90;;;;;;5090523;28;20425;-73
2021/06/23 01:52:18;;;;;;;8.43;7.18;;;18.10;99.90;;;;;;5090803;28;20016;-72
2021/06/23 01:54:44;;;;;;;10.88;7.88;;;18.00;99.90;;;;;;5090910;28;20406;-74
2021/06/23 01:57:14;;;;;;;9.95;8.18;;;18.10;99.90;;;;;;5090946;28;20029;-72
2021/06/23 01:59:40;;;;;;;13.35;7.63;;;18.10;99.90;;;;;;5090632;28;20478;-72
2021/06/23 02:02:27;;;;;;;12.57;8.27;;;18.10;99.90;;;;;;5094661;28;20020;-72
2021/06/23 02:05:11;;;;;;;11.60;7.38;;;18.10;99.90;;;;;;5094644;28;20062;-73
2021/06/23 02:08:00;;;;;;;10.07;7.88;;;18.10;99.90;;;;;;5094146;28;20123;-73
2021/06/23 02:10:40;;;;;;;12.07;7.88;;;18.10;99.90;;;;;;5092572;28;20031;-72
2021/06/23 02:13:44;;;;;;;10.07;7.40;;;18.00;99.90;;;;;;5092500;28;20374;-72
2021/06/23 02:16:12;;;;;;;10.65;7.40;;;18.00;99.90;;;;;;5094530;28;20030;-73
2021/06/23 02:18:39;;;;;;;11.50;7.32;;;18.00;99.90;;;;;;5094676;28;20058;-74
2021/06/23 02:21:06;;;;;;;10.20;7.25;;;17.90;99.90;;;;;;5093711;28;20039;-73
2021/06/23 02:23:37;;;;;;;13.98;8.00;;;17.90;99.90;;;;;;5093555;28;20073;-73
2021/06/23 02:26:03;;;;;;;17.50;9.07;;;17.80;99.90;;;;;;5073981;28;20052;-72
2021/06/23 02:28:29;;;;;;;11.38;8.25;;;17.80;99.90;;;;;;5074469;28;20035;-72
2021/06/23 02:30:56;;;;;;;8.82;7.35;;;17.70;99.90;;;;;;5073665;28;20039;-72
2021/06/23 02:33:21;;;;;;;9.13;7.75;;;17.60;99.90;;;;;;5083290;28;20016;-72
2021/06/23 02:35:49;;;;;;;11.68;7.22;;;17.60;99.90;;;;;;5093856;28;20496;-72
2021/06/23 02:38:16;;;;;;;7.85;6.50;;;17.50;99.90;;;;;;5093895;28;20024;-72
2021/06/23 02:40:42;;;;;;;12.98;6.40;;;17.50;99.90;;;;;;5093596;28;20837;-72
2021/06/23 02:43:08;;;;;;;9.60;7.28;;;17.40;99.90;;;;;;5094367;28;20026;-72
2021/06/23 02:45:34;;;;;;;17.08;8.32;;;17.40;99.90;;;;;;5093553;28;20051;-73
2021/06/23 02:48:00;;;;;;;8.45;6.90;;;17.30;99.90;;;;;;5093813;28;20060;-73
2021/06/23 02:50:31;;;;;;;12.30;7.25;;;17.30;99.90;;;;;;5093436;28;20101;-72
2021/06/23 02:52:57;;;;;;;11.20;7.97;;;17.30;99.90;;;;;;5092035;28;20020;-72
2021/06/23 02:55:23;;;;;;;14.38;8.32;;;17.30;99.90;;;;;;5093802;28;20024;-72
2021/06/23 02:57:51;;;;;;;13.40;8.07;;;17.20;99.90;;;;;;5093691;28;20077;-74
2021/06/23 03:00:17;;;;;;;9.90;7.93;;;17.20;99.90;;;;;;5093007;28;20032;-74
2021/06/23 03:02:43;;;;;;;13.45;8.05;;;17.10;99.90;;;;;;5093676;28;20066;-72
2021/06/23 03:05:09;;;;;;;13.63;8.27;;;17.00;99.90;;;;;;5093601;28;20427;-72
2021/06/23 03:07:35;;;;;;;12.82;8.00;;;17.00;99.90;;;;;;5092870;28;20032;-72
2021/06/23 03:10:10;;;;;;;15.80;8.55;;;17.10;99.90;;;;;;5092682;28;20470;-72
2021/06/23 03:12:35;;;;;;;8.20;7.40;;;17.00;99.90;;;;;;5092567;28;20016;-73
2021/06/23 03:15:02;;;;;;;8.63;6.63;;;16.90;99.90;;;;;;5097133;28;20026;-73
2021/06/23 03:17:28;;;;;;;7.97;6.43;;;16.90;99.90;;;;;;5103179;28;20050;-73
2021/06/23 03:19:53;;;;;;;10.02;7.25;;;16.80;99.90;;;;;;5094068;28;20016;-73
2021/06/23 03:22:19;;;;;;;8.27;7.30;;;16.80;99.90;;;;;;5092655;28;20027;-73
2021/06/23 03:24:45;;;;;;;11.63;7.32;;;16.80;99.90;;;;;;5093182;28;20113;-73
2021/06/23 03:27:10;;;;;;;7.55;6.85;;;16.80;99.90;;;;;;5093025;28;20123;-73
2021/06/23 03:29:37;;;;;;;12.95;7.35;;;16.80;99.90;;;;;;5092430;28;20098;-72
2021/06/23 03:32:06;;;;;;;9.23;8.10;;;16.90;99.90;;;;;;5092609;28;20440;-71
2021/06/23 03:34:32;;;;;;;14.45;7.65;;;16.90;99.90;;;;;;5092741;28;20032;-72
2021/06/23 03:36:57;;;;;;;7.32;6.20;;;16.90;99.90;;;;;;5092615;28;20053;-71
2021/06/23 03:39:23;;;;;;;11.55;6.55;;;16.80;99.90;;;;;;5092221;28;20023;-72
2021/06/23 03:41:49;;;;;;;6.55;5.75;;;16.80;99.90;;;;;;5092801;28;20021;-73
2021/06/23 03:44:14;;;;;;;8.18;6.30;;;16.80;99.90;;;;;;5092625;28;20529;-73
2021/06/23 03:46:40;;;;;;;8.35;6.10;;;16.90;99.90;;;;;;5091158;28;20027;-72
2021/06/23 03:49:06;;;;;;;6.10;5.45;;;16.80;99.90;;;;;;5092626;28;20020;-73
2021/06/23 03:51:32;;;;;;;8.00;7.13;;;17.10;99.90;;;;;;5090169;28;20035;-72
2021/06/23 03:53:57;;;;;;;10.27;6.68;;;17.10;99.90;;;;;;5092191;28;20058;-73
2021/06/23 03:56:23;;;;;;;7.10;6.40;;;17.20;99.90;;;;;;5092623;28;20441;-73
2021/06/23 03:58:49;;;;;;;10.82;6.65;;;17.20;99.90;;;;;;5091366;28;20028;-73
2021/06/23 04:01:15;;;;;;;8.50;5.10;;;17.20;99.90;;;;;;5091529;28;20077;-73
2021/06/23 04:03:41;;;;;;;9.57;4.57;;;17.20;99.90;;;;;;5092275;28;20024;-73
2021/06/23 04:06:07;;;;;;;5.97;4.50;;;17.20;99.90;;;;;;5092124;28;20099;-72
2021/06/23 04:08:33;;;;;;;6.32;3.90;;;17.20;99.90;;;;;;5092293;28;20545;-72
2021/06/23 04:10:59;;;;;;;8.13;4.10;;;17.30;99.90;;;;;;5091688;28;20103;-73
2021/06/23 04:13:24;;;;;;;11.93;4.65;;;17.40;99.90;;;;;;5092059;28;20394;-72
2021/06/23 04:15:50;;;;;;;5.57;4.43;;;17.50;99.90;;;;;;5091940;28;20036;-72
2021/06/23 04:18:16;;;;;;;4.13;3.70;;;17.50;99.90;;;;;;5091916;28;20028;-72
2021/06/23 04:20:41;;;;;;;8.13;4.00;;;17.50;99.90;;;;;;5091360;28;20040;-73
2021/06/23 04:23:07;;;;;;;4.47;4.07;;;17.50;99.90;;;;;;5077007;28;20024;-75
2021/06/23 04:25:33;;;;;;;6.78;4.10;;;17.50;99.90;;;;;;5092129;28;20039;-72
2021/06/23 04:27:58;;;;;;;10.85;3.88;;;17.50;99.90;;;;;;5083757;28;20027;-74
2021/06/23 04:30:24;;;;;;;7.65;3.78;;;17.60;99.90;;;;;;5089872;28;20028;-73
2021/06/23 04:32:50;;;;;;;5.13;3.53;;;17.70;99.90;;;;;;5090658;28;20428;-74
2021/06/23 04:35:15;;;;;;;5.60;3.13;;;17.70;99.90;;;;;;5092794;28;20020;-74
2021/06/23 04:37:43;;;;;;;4.70;3.10;;;17.60;99.90;;;;;;5093584;28;20028;-72
2021/06/23 04:40:12;;;;;;;4.28;2.08;;;17.60;99.90;;;;;;5098240;28;20019;-74
2021/06/23 04:42:39;;;;;;;3.55;3.13;;;17.60;99.90;;;;;;5113642;28;20051;-74
2021/06/23 04:45:07;;;;;;;8.00;2.92;;;17.70;99.90;;;;;;5110812;28;20061;-74
2021/06/23 04:47:34;;;;;;;6.68;3.70;;;17.70;99.90;;;;;;5112429;28;20033;-75
2021/06/23 04:49:59;;;;;;;13.85;3.67;;;17.80;99.90;;;;;;5112205;28;20023;-74
2021/06/23 04:52:25;;;;;;;13.68;4.90;;;17.80;99.90;;;;;;5113196;28;20492;-72
2021/06/23 04:54:51;;;;;;;5.50;5.00;;;17.80;99.90;;;;;;5091264;28;20032;-72
2021/06/23 04:57:17;;;;;;;6.72;4.43;;;17.80;99.90;;;;;;5091926;28;20377;-72
2021/06/23 04:59:44;;;;;;;9.95;4.38;;;17.90;99.90;;;;;;5091198;28;20016;-72
2021/06/23 05:02:09;;;;;;;6.40;4.20;;;17.90;99.90;;;;;;5090968;28;20020;-72
2021/06/23 05:04:36;;;;;;;9.45;4.03;;;17.90;99.90;;;;;;5090867;28;20024;-72
2021/06/23 05:07:03;;;;;;;8.98;3.88;;;17.90;99.90;;;;;;5091650;28;20315;-72
2021/06/23 05:09:29;;;;;;;10.63;3.78;;;17.90;99.90;;;;;;5090786;28;20359;-72
2021/06/23 05:11:55;;;;;;;7.75;4.28;;;17.80;99.90;;;;;;5091303;28;20012;-72
2021/06/23 05:14:21;;;;;;;7.97;4.05;;;17.80;99.90;;;;;;5090595;28;20028;-70
2021/06/23 05:16:49;;;;;;;8.23;4.32;;;17.90;99.90;;;;;;5098683;28;20012;-74
2021/06/23 05:19:15;;;;;;;8.48;4.20;;;17.90;99.90;;;;;;5112032;28;20098;-74
2021/06/23 05:21:41;;;;;;;6.45;3.78;;;18.00;99.90;;;;;;5111185;28;20024;-74
2021/06/23 05:24:07;;;;;;;5.28;3.50;;;17.90;99.90;;;;;;5111428;28;20454;-75
2021/06/23 05:26:33;;;;;;;11.05;3.55;;;17.90;99.90;;;;;;5112205;28;20047;-75
2021/06/23 05:28:58;;;;;;;4.85;3.30;;;17.80;99.90;;;;;;5110605;28;20024;-74
2021/06/23 05:31:24;;;;;;;5.93;2.60;;;17.90;99.90;;;;;;5111692;28;20173;-75
2021/06/23 05:33:51;;;;;;;10.40;2.92;;;17.90;99.90;;;;;;5112193;28;20020;-75
2021/06/23 05:36:17;;;;;;;5.05;2.58;;;17.90;99.90;;;;;;5116494;28;20035;-75
2021/06/23 05:38:42;;;;;;;4.88;2.67;;;18.00;99.90;;;;;;5125655;28;20115;-76
2021/06/23 05:41:08;;;;;;;4.45;3.28;;;17.90;99.90;;;;;;5123230;28;20145;-75
2021/06/23 05:43:33;;;;;;;3.00;2.33;;;18.00;99.90;;;;;;5082947;28;20039;-76
2021/06/23 05:45:59;;;;;;;4.72;2.60;;;17.90;99.90;;;;;;5096859;28;20039;-72
2021/06/23 05:48:25;;;;;;;9.57;2.40;;;18.00;99.90;;;;;;5099531;28;20424;-75
2021/06/23 05:50:50;;;;;;;5.57;2.25;;;18.20;99.90;;;;;;5099015;28;20631;-74
2021/06/23 05:53:16;;;;;;;8.50;2.60;;;18.40;99.90;;;;;;5099320;28;20026;-72
2021/06/23 05:55:42;;;;;;;7.80;2.80;;;18.30;99.90;;;;;;5096530;28;20071;-74
2021/06/23 05:58:08;;;;;;;6.88;2.58;;;18.30;99.90;;;;;;5094660;28;20116;-73
2021/06/23 06:00:36;;;;;;;6.65;3.15;;;18.20;99.90;;;;;;5092443;28;20415;-74
2021/06/23 06:03:05;;;;;;;5.88;3.38;;;18.20;99.90;;;;;;5094525;28;20115;-74
2021/06/23 06:05:31;;;;;;;5.43;3.30;;;18.20;99.90;;;;;;5094306;28;20070;-73
2021/06/23 06:07:57;;;;;;;6.00;3.13;;;18.20;99.90;;;;;;5094185;28;20062;-77
2021/06/23 06:10:22;;;;;;;3.28;2.97;;;18.20;99.90;;;;;;5095043;28;20096;-76
2021/06/23 06:12:48;;;;;;;6.82;3.38;;;18.20;99.90;;;;;;5094615;28;20017;-74
2021/06/23 06:15:14;;;;;;;7.22;3.70;;;18.40;99.90;;;;;;5095828;28;20025;-75
2021/06/23 06:17:40;;;;;;;4.50;2.92;;;18.50;99.90;;;;;;5107830;28;20051;-75
2021/06/23 06:20:07;;;;;;;3.20;2.60;;;18.50;99.90;;;;;;5114065;28;20031;-77
2021/06/23 06:22:33;;;;;;;3.45;3.15;;;18.70;99.90;;;;;;5098088;28;20428;-76
2021/06/23 06:25:00;;;;;;;2.90;2.70;;;18.90;99.90;;;;;;5093736;28;20024;-76
2021/06/23 06:27:25;;;;;;;4.88;2.20;;;19.00;99.90;;;;;;5090710;28;20052;-74
2021/06/23 06:29:51;;;;;;;4.53;1.60;;;19.10;99.90;;;;;;5074041;28;20583;-75
2021/06/23 06:32:17;;;;;;;4.03;1.92;;;19.20;99.90;;;;;;5092515;28;20051;-75
2021/06/23 06:34:43;;;;;;;1.50;1.35;;;19.40;99.90;;;;;;5085732;28;20478;-76
2021/06/23 06:37:09;;;;;;;2.10;1.67;;;19.50;99.90;;;;;;5131072;22;20054;-77
2021/06/23 06:39:35;;;;;;;3.83;1.67;;;19.60;99.90;;;;;;5136264;27;20034;-76
2021/06/23 06:42:00;;;;;;;2.30;1.23;;;19.70;99.90;;;;;;5154544;27;20422;-77
2021/06/23 06:44:30;;;;;;;1.75;1.38;;;19.90;99.90;;;;;;5155028;27;20042;-75
2021/06/23 06:46:56;;;;;;;1.50;1.30;;;19.80;99.90;;;;;;5153204;27;20054;-77
2021/06/23 06:49:22;;;;;;;1.40;1.30;;;19.60;99.90;;;;;;5139606;27;20152;-76
2021/06/23 06:51:47;;;;;;;2.20;1.50;;;19.90;99.90;;;;;;5135363;27;20027;-76
2021/06/23 06:54:13;;;;;;;1.45;1.35;;;20.20;99.90;;;;;;5128781;27;20410;-76
2021/06/23 06:56:39;;;;;;;2.78;1.50;;;20.50;99.90;;;;;;5133652;27;20023;-76
2021/06/23 06:59:05;;;;;;;1.48;1.02;;;20.50;99.90;;;;;;5135377;27;20030;-74
2021/06/23 07:01:30;;;;;;;4.00;1.42;;;20.50;99.90;;;;;;5135369;27;20034;-78
2021/06/23 07:03:56;;;;;;;4.20;1.60;;;20.50;99.90;;;;;;5134783;27;20118;-77
2021/06/23 07:06:22;;;;;;;1.17;1.10;;;20.50;99.90;;;;;;5147685;27;20106;-77
2021/06/23 07:08:48;;;;;;;1.92;1.50;;;20.60;99.90;;;;;;5156891;27;20027;-76
2021/06/23 07:11:13;;;;;;;1.73;1.27;;;20.60;99.90;;;;;;5156995;27;20472;-76
2021/06/23 07:13:39;;;;;;;2.53;1.38;;;20.50;99.90;;;;;;5156330;27;20497;-74
2021/06/23 07:16:05;;;;;;;5.55;1.50;;;20.40;99.90;;;;;;5157069;27;20015;-76
2021/06/23 07:18:31;;;;;;;2.17;1.60;;;20.50;99.90;;;;;;5161222;27;20468;-77
2021/06/23 07:20:57;;;;;;;2.80;1.23;;;20.50;99.90;;;;;;5140122;27;20026;-77
2021/06/23 07:23:23;;;;;;;2.20;2.00;;;20.70;99.90;;;;;;5139399;27;20029;-77
2021/06/23 07:25:48;;;;;;;1.92;1.77;;;21.00;99.90;;;;;;5157705;27;20023;-78
2021/06/23 07:28:19;;;;;;;2.45;2.10;;;21.30;99.90;;;;;;5156569;27;20444;-78
2021/06/23 07:30:47;;;;;;;2.13;2.03;;;21.60;99.90;;;;;;5155818;27;20021;-77
2021/06/23 07:33:12;;;;;;;2.05;1.65;;;21.90;99.90;;;;;;5157623;27;20046;-76
2021/06/23 07:38:22;;;;;;;2.00;1.45;;;21.90;99.90;;;;;;5156105;27;20411;-77
2021/06/23 07:41:06;;;;;;;3.35;1.60;;;22.10;99.90;;;;;;5155512;27;20019;-76
2021/06/23 07:43:31;;;;;;;1.75;1.60;;;22.50;99.90;;;;;;5155897;27;20052;-76
2021/06/23 07:45:59;;;;;;;5.47;1.40;;;22.60;99.90;;;;;;5156181;27;20030;-75
2021/06/23 07:48:30;;;;;;;2.15;1.40;;;22.90;99.90;;;;;;5154716;27;20037;-78
2021/06/23 07:51:14;;;;;;;3.33;1.73;;;23.00;99.90;;;;;;5137459;27;20421;-78
2021/06/23 07:56:09;;;;;;;2.55;1.40;;;22.90;99.90;;;;;;5139208;27;20027;-75
2021/06/23 08:14:40;;;;;;;1.95;1.20;;;23.70;99.90;;;;;;5133924;27;20026;-76
2021/06/23 08:17:07;;;;;;;1.45;1.17;;;24.10;99.90;;;;;;5133774;27;20533;-76
2021/06/23 08:19:32;;;;;;;1.55;0.90;;;24.20;99.90;;;;;;5133345;27;20027;-75
2021/06/23 08:21:58;;;;;;;1.63;1.08;;;24.50;99.90;;;;;;5106625;28;20115;-75
2021/06/23 08:24:24;;;;;;;1.45;1.30;;;24.70;99.90;;;;;;5116714;27;20050;-75
2021/06/23 08:26:50;;;;;;;1.80;1.27;;;24.70;99.90;;;;;;5132335;27;20023;-74
2021/06/23 08:29:15;;;;;;;2.92;0.88;;;24.30;99.90;;;;;;5133103;27;20115;-75
2021/06/23 08:31:41;;;;;;;1.42;1.00;;;24.10;99.90;;;;;;5133119;27;20633;-74
2021/06/23 08:34:07;;;;;;;1.60;1.05;;;24.10;99.90;;;;;;5132976;27;20047;-75
2021/06/23 08:36:33;;;;;;;1.85;0.90;;;24.20;99.90;;;;;;5133362;27;20098;-75
2021/06/23 08:38:59;;;;;;;1.33;0.85;;;24.30;99.90;;;;;;5132817;28;20411;-75
2021/06/23 08:41:26;;;;;;;2.63;0.80;;;24.40;99.90;;;;;;5132448;28;20038;-74
2021/06/23 08:43:57;;;;;;;1.08;0.98;;;24.30;99.90;;;;;;5114019;28;20023;-76
2021/06/23 08:46:22;;;;;;;1.30;0.98;;;24.30;99.90;;;;;;5132878;28;20057;-75
2021/06/23 08:48:48;;;;;;;0.88;0.60;;;24.10;99.90;;;;;;5114678;28;20023;-76
2021/06/23 08:51:14;;;;;;;1.05;1.00;;;23.60;99.90;;;;;;5133970;28;20023;-77
2021/06/23 08:53:40;;;;;;;2.00;0.90;;;23.50;99.90;;;;;;5133266;28;20534;-76
2021/06/23 08:56:07;;;;;;;2.85;0.70;;;24.10;99.90;;;;;;5133182;28;20015;-76
2021/06/23 08:58:33;;;;;;;0.95;0.82;;;24.70;99.90;;;;;;5133513;28;20023;-77
2021/06/23 09:00:59;;;;;;;2.78;0.75;;;25.70;99.90;;;;;;5131284;27;20027;-75
2021/06/23 09:03:25;;;;;;;0.80;0.80;;;26.00;99.90;;;;;;5132316;28;20507;-75
2021/06/23 09:05:56;;;;;;;0.60;0.60;;;25.50;99.90;;;;;;5132772;28;20042;-75
2021/06/23 09:08:33;;;;;;;2.10;0.47;;;26.40;99.90;;;;;;5114797;28;20027;-75
2021/06/23 09:11:01;;;;;;;0.75;0.50;;;26.30;99.90;;;;;;5135679;27;20011;-74
2021/06/23 09:13:27;;;;;;;1.10;0.70;;;25.90;99.90;;;;;;5136500;28;20028;-75
2021/06/23 09:15:59;;;;;;;0.85;0.50;;;27.40;99.90;;;;;;5136586;27;20031;-76
2021/06/23 09:18:34;;;;;;;0.85;0.40;;;27.70;99.70;;;;;;5138268;28;20019;-75
2021/06/23 09:21:20;;;;;;;0.82;0.38;;;27.80;99.10;;;;;;5137842;28;20023;-75
2021/06/23 09:23:54;;;;;;;1.48;0.45;;;28.10;97.00;;;;;;5137328;28;20100;-73
2021/06/23 09:26:37;;;;;;;0.30;0.25;;;28.30;97.10;;;;;;5136000;28;20484;-75
2021/06/23 09:29:08;;;;;;;1.13;0.30;;;28.50;97.20;;;;;;5135021;28;20035;-75
2021/06/23 09:31:58;;;;;;;0.55;0.40;;;27.60;96.30;;;;;;5136455;28;20039;-75
2021/06/23 09:34:28;;;;;;;3.20;0.50;;;27.80;96.90;;;;;;5135624;28;20023;-75
2021/06/23 09:36:54;;;;;;;2.65;0.40;;;28.20;96.20;;;;;;5087770;27;1312660;-76
2021/06/23 09:39:28;;;;;;;1.02;0.57;;;28.30;97.70;;;;;;5136774;27;20034;-73
2021/06/23 09:41:56;;;;;;;1.63;0.40;;;28.40;95.30;;;;;;5137129;27;20015;-76
2021/06/23 09:44:23;;;;;;;0.20;0.20;;;28.40;95.00;;;;;;5137408;27;20084;-75
2021/06/23 09:46:50;;;;;;;0.52;0.30;;;28.40;94.70;;;;;;5138231;27;20026;-76
2021/06/23 09:49:26;;;;;;;0.47;0.30;;;29.00;95.20;;;;;;5120651;27;20109;-76
2021/06/23 09:52:20;;;;;;;0.45;0.32;;;28.90;94.30;;;;;;5138051;27;20023;-74
2021/06/23 09:54:49;;;;;;;0.40;0.40;;;28.10;94.80;;;;;;5137581;27;20084;-74
2021/06/23 09:57:16;;;;;;;0.30;0.30;;;27.80;94.80;;;;;;5138432;27;20072;-75
2021/06/23 09:59:48;;;;;;;0.50;0.40;;;27.50;95.10;;;;;;5120894;27;20023;-75
2021/06/23 10:02:37;;;;;;;2.33;0.40;;;27.30;95.50;;;;;;5139116;27;20027;-75
2021/06/23 10:05:21;;;;;;;3.00;0.32;;;27.50;95.40;;;;;;5142316;27;20378;-74
2021/06/23 10:07:49;;;;;;;0.30;0.30;;;27.20;94.30;;;;;;5147362;27;20035;-74
2021/06/23 10:10:17;;;;;;;0.40;0.40;;;27.30;95.80;;;;;;5144927;27;20019;-75
2021/06/23 10:12:48;;;;;;;0.68;0.40;;;26.90;95.90;;;;;;5141438;27;20020;-74
2021/06/23 10:15:14;;;;;;;0.30;0.30;;;27.10;95.60;;;;;;5154621;27;20031;-74
2021/06/23 10:17:40;;;;;;;1.42;0.50;;;27.10;92.90;;;;;;5166984;27;20022;-75
2021/06/23 10:20:07;;;;;;;0.30;0.30;;;27.00;94.10;;;;;;5164122;27;20111;-74
2021/06/23 10:22:33;;;;;;;1.85;0.40;;;27.60;94.40;;;;;;5165210;27;20034;-73
2021/06/23 10:25:03;;;;;;;0.90;0.47;;;27.90;92.00;;;;;;5156886;27;20019;-74
2021/06/23 10:27:29;;;;;;;2.45;0.50;;;27.70;93.50;;;;;;5143022;27;20042;-75
2021/06/23 10:29:58;;;;;;;0.30;0.30;;;27.70;94.80;;;;;;5138180;27;20045;-75
2021/06/23 10:32:24;;;;;;;0.28;0.28;;;27.70;93.00;;;;;;5139623;27;20023;-73
2021/06/23 10:34:50;;;;;;;1.30;0.35;;;27.40;94.40;;;;;;5143185;27;20044;-73
2021/06/23 10:37:18;;;;;;;0.90;0.50;;;27.40;95.00;;;;;;5142638;27;20400;-75
2021/06/23 10:39:45;;;;;;;2.15;0.43;;;27.60;95.00;;;;;;5138042;27;20102;-75
2021/06/23 10:42:12;;;;;;;2.28;0.40;;;27.40;94.30;;;;;;5139130;27;20031;-73
2021/06/23 10:44:43;;;;;;;0.38;0.38;;;27.60;96.30;;;;;;5138676;27;20038;-73
2021/06/23 10:47:26;;;;;;;0.30;0.30;;;27.50;96.00;;;;;;5119757;27;20026;-75
2021/06/23 10:49:53;;;;;;;1.30;0.40;;;27.80;94.50;;;;;;5136464;27;20027;-75
2021/06/23 10:52:25;;;;;;;0.30;0.30;;;28.00;94.10;;;;;;5136978;27;20046;-75
2021/06/23 10:54:54;;;;;;;0.73;0.30;;;28.20;93.40;;;;;;5136273;27;20084;-76
2021/06/23 10:57:39;;;;;;;1.45;0.20;;;28.20;93.20;;;;;;5135624;27;20059;-73
2021/06/23 11:00:11;;;;;;;0.30;0.30;;;27.80;93.60;;;;;;5134317;27;20046;-77
2021/06/23 11:02:42;;;;;;;0.65;0.30;;;28.00;93.30;;;;;;5138754;27;20026;-75
2021/06/23 11:05:18;;;;;;;0.30;0.30;;;28.20;93.40;;;;;;5140113;27;20487;-75
2021/06/23 11:07:55;;;;;;;0.30;0.30;;;28.30;91.80;;;;;;5139608;27;20077;-76
2021/06/23 11:10:57;;;;;;;0.25;0.20;;;28.00;94.60;;;;;;5137554;27;20026;-75
2021/06/23 11:13:32;;;;;;;0.80;0.30;;;27.80;92.90;;;;;;5133957;27;20106;-75
2021/06/23 11:15:58;;;;;;;1.02;0.20;;;28.00;90.70;;;;;;5139174;27;20475;-75
2021/06/23 11:18:31;;;;;;;0.20;0.20;;;28.20;90.60;;;;;;5120944;27;20049;-76
2021/06/23 11:21:03;;;;;;;0.30;0.30;;;28.70;90.90;;;;;;5121696;27;20034;-75
2021/06/23 11:23:43;;;;;;;0.30;0.30;;;29.10;90.10;;;;;;5140995;27;20030;-75
2021/06/23 11:26:29;;;;;;;1.92;0.25;;;29.10;88.90;;;;;;5139823;27;20027;-78
2021/06/23 11:29:10;;;;;;;0.98;0.20;;;29.10;87.80;;;;;;5115506;28;20127;-73
2021/06/23 11:31:44;;;;;;;0.20;0.20;;;28.90;88.90;;;;;;5117032;28;20020;-76
2021/06/23 11:34:11;;;;;;;0.80;0.30;;;29.30;87.80;;;;;;5135398;27;20019;-74
2021/06/23 11:36:37;;;;;;;0.50;0.30;;;29.40;87.70;;;;;;5135419;27;20019;-73
2021/06/23 11:39:06;;;;;;;3.22;0.45;;;29.20;86.20;;;;;;5135407;27;20030;-75
2021/06/23 11:41:32;;;;;;;0.40;0.30;;;29.40;87.30;;;;;;5117447;27;20027;-75
2021/06/23 11:43:58;;;;;;;2.33;0.77;;;29.70;86.50;;;;;;5138485;27;20481;-73
2021/06/23 11:46:23;;;;;;;0.30;0.25;;;29.30;85.30;;;;;;5140341;27;20456;-75
2021/06/23 11:48:49;;;;;;;0.52;0.52;;;29.70;88.10;;;;;;5138618;27;20034;-76
2021/06/23 11:51:15;;;;;;;1.85;0.40;;;30.20;87.50;;;;;;5137078;27;20023;-74
2021/06/23 11:53:41;;;;;;;0.70;0.32;;;30.30;86.10;;;;;;5138291;27;20097;-75
2021/06/23 11:56:07;;;;;;;3.08;0.32;;;29.90;82.50;;;;;;5137119;27;20027;-75
2021/06/23 11:58:33;;;;;;;0.30;0.30;;;29.70;84.20;;;;;;5118945;27;20023;-75
2021/06/23 12:00:59;;;;;;;8.10;0.32;;;29.60;84.80;;;;;;5134328;27;20023;-75
2021/06/23 12:03:25;;;;;;;0.55;0.40;;;29.30;82.90;;;;;;5134198;27;20026;-73
2021/06/23 12:05:51;;;;;;;0.50;0.30;;;29.60;88.20;;;;;;5134353;27;20110;-75
2021/06/23 12:08:17;;;;;;;0.50;0.50;;;30.50;81.70;;;;;;5131473;27;20027;-76
2021/06/23 12:10:45;;;;;;;1.85;0.30;;;31.00;83.40;;;;;;5138089;27;20007;-76
2021/06/23 12:13:12;;;;;;;0.32;0.30;;;31.30;78.30;;;;;;5117012;27;20391;-76
2021/06/23 12:15:39;;;;;;;0.75;0.30;;;30.50;79.50;;;;;;5136071;27;20023;-77
2021/06/23 12:18:07;;;;;;;0.30;0.30;;;30.30;79.90;;;;;;5136400;27;20369;-77
2021/06/23 12:20:36;;;;;;;1.30;0.45;;;29.40;82.50;;;;;;5137599;27;20442;-76
2021/06/23 12:23:05;;;;;;;1.45;0.50;;;28.80;85.10;;;;;;5137692;27;20020;-76
2021/06/23 12:25:34;;;;;;;0.47;0.38;;;28.80;90.00;;;;;;5136890;27;20045;-77
2021/06/23 12:28:02;;;;;;;0.30;0.30;;;28.80;87.20;;;;;;5134705;27;20051;-75
2021/06/23 12:30:28;;;;;;;0.40;0.40;;;28.60;89.00;;;;;;5136367;27;20030;-76
2021/06/23 12:32:58;;;;;;;0.40;0.40;;;28.70;89.40;;;;;;5133485;27;20023;-75
2021/06/23 12:35:25;;;;;;;1.10;0.60;;;28.70;87.70;;;;;;5116550;27;20100;-76
2021/06/23 12:37:50;;;;;;;2.95;0.70;;;28.60;89.00;;;;;;5134357;27;20045;-76
2021/06/23 12:40:16;;;;;;;2.83;0.40;;;28.90;90.70;;;;;;5136819;27;20465;-77
2021/06/23 12:42:42;;;;;;;0.85;0.50;;;28.90;90.20;;;;;;5134355;27;20027;-77
2021/06/23 12:45:09;;;;;;;0.60;0.50;;;28.90;90.20;;;;;;5136465;27;20019;-76
2021/06/23 12:47:36;;;;;;;1.10;0.50;;;28.90;88.80;;;;;;5144334;27;20544;-77
2021/06/23 12:50:03;;;;;;;0.65;0.40;;;27.80;88.40;;;;;;5139097;27;20035;-77
2021/06/23 12:52:29;;;;;;;1.08;0.38;;;28.00;91.00;;;;;;5118762;27;20022;-78
2021/06/23 12:54:55;;;;;;;1.33;0.38;;;28.20;90.20;;;;;;5120767;27;20024;-77
2021/06/23 12:57:21;;;;;;;1.83;0.30;;;27.80;90.50;;;;;;5139443;27;20028;-78
2021/06/23 12:59:48;;;;;;;0.35;0.30;;;27.90;92.50;;;;;;5137649;27;20120;-77
2021/06/23 13:02:14;;;;;;;1.85;0.50;;;28.40;91.50;;;;;;5139555;27;20037;-77
2021/06/23 13:04:41;;;;;;;0.60;0.40;;;28.70;91.90;;;;;;5133113;28;20023;-78
2021/06/23 13:07:07;;;;;;;0.60;0.50;;;28.70;90.50;;;;;;5136735;28;20023;-76
2021/06/23 13:09:33;;;;;;;0.40;0.40;;;28.40;88.70;;;;;;5119982;28;20033;-77
2021/06/23 13:12:00;;;;;;;1.02;0.40;;;28.30;90.40;;;;;;5134968;28;20380;-75